createdAt,value
2017-11-20T12:00:36.761Z,100334.66
2017-11-20T12:01:42.511Z,100337.23
2017-11-20T12:02:48.314Z,100334.52
2017-11-20T12:03:53.452Z,100334.38
2017-11-20T12:04:58.858Z,100337.52
2017-11-20T12:06:04.068Z,100339.90
2017-11-20T12:07:09.835Z,100337.42
2017-11-20T12:08:14.970Z,100342.17
2017-11-20T12:09:20.331Z,100339.30
2017-11-20T12:10:25.414Z,100338.81
2017-11-20T12:11:30.566Z,100334.38
2017-11-20T12:12:36.018Z,100334.03
2017-11-20T12:13:41.504Z,100342.31
2017-11-20T12:14:46.953Z,100337.25
2017-11-20T12:15:52.422Z,100339.41
2017-11-20T12:17:01.982Z,100340.60
2017-11-20T12:18:07.703Z,100335.73
2017-11-20T12:19:13.108Z,100346.45
2017-11-20T12:20:18.585Z,100347.55
2017-11-20T12:21:23.634Z,100341.61
2017-11-20T12:22:29.967Z,100335.37
2017-11-20T12:23:35.770Z,100337.82
2017-11-20T12:24:41.177Z,100335.55
2017-11-20T12:25:46.446Z,100330.17
2017-11-20T12:26:51.520Z,100335.59
2017-11-20T12:27:57.275Z,100331.69
2017-11-20T12:29:02.801Z,100335.52
2017-11-20T12:30:08.234Z,100339.55
2017-11-20T12:31:13.282Z,100337.99
2017-11-20T12:32:18.347Z,100334.02
2017-11-20T12:33:24.192Z,100335.36
2017-11-20T12:34:29.302Z,100323.73
2017-11-20T12:35:34.684Z,100328.70
2017-11-20T12:36:39.517Z,100331.19
2017-11-20T12:37:44.757Z,100332.27
2017-11-20T12:38:50.497Z,100326.39
2017-11-20T12:39:55.892Z,100328.49
2017-11-20T12:41:01.975Z,100329.68
2017-11-20T12:42:07.614Z,100330.09
2017-11-20T12:43:15.079Z,100327.29
2017-11-20T12:44:20.685Z,100328.69
2017-11-20T12:45:27.438Z,100328.91
2017-11-20T12:46:32.555Z,100336.46
2017-11-20T12:47:37.610Z,100329.34
2017-11-20T12:48:44.318Z,100335.23
2017-11-20T12:49:49.626Z,100335.41
2017-11-20T12:50:54.737Z,100334.22
2017-11-20T12:52:01.008Z,100338.03
2017-11-20T12:53:06.419Z,100337.16
2017-11-20T12:54:12.310Z,100340.38
2017-11-20T12:55:17.377Z,100335.34
2017-11-20T12:56:23.632Z,100332.59
2017-11-20T12:57:29.805Z,100327.81
2017-11-20T12:58:36.171Z,100333.36
2017-11-20T12:59:42.728Z,100331.53
2017-11-20T13:00:48.216Z,100332.42
2017-11-20T13:01:53.777Z,100330.34
2017-11-20T13:02:58.640Z,100328.98
2017-11-20T13:04:04.783Z,100326.17
2017-11-20T13:05:10.004Z,100326.99
2017-11-20T13:06:16.025Z,100324.87
2017-11-20T13:07:21.996Z,100324.40
2017-11-20T13:08:28.254Z,100324.58
2017-11-20T13:09:33.754Z,100327.45
2017-11-20T13:10:39.484Z,100323.77
2017-11-20T13:11:46.193Z,100332.50
2017-11-20T13:12:51.827Z,100327.86
2017-11-20T13:13:57.371Z,100329.02
2017-11-20T13:15:03.420Z,100326.91
2017-11-20T13:16:09.153Z,100330.47
2017-11-20T13:17:14.636Z,100334.84
2017-11-20T13:18:20.491Z,100334.91
2017-11-20T13:19:25.387Z,100333.41
2017-11-20T13:20:30.502Z,100335.82
2017-11-20T13:21:35.578Z,100333.61
2017-11-20T13:22:41.426Z,100328.36
2017-11-20T13:23:47.245Z,100332.91
2017-11-20T13:24:52.314Z,100330.91
2017-11-20T13:25:57.605Z,100325.77
2017-11-20T13:27:02.794Z,100326.00
2017-11-20T13:28:07.856Z,100329.05
2017-11-20T13:29:12.936Z,100325.69
2017-11-20T13:30:18.014Z,100331.64
2017-11-20T13:31:23.052Z,100332.32
2017-11-20T13:32:28.974Z,100328.81
2017-11-20T13:33:34.062Z,100330.89
2017-11-20T13:34:39.350Z,100331.19
2017-11-20T13:35:46.182Z,100334.06
2017-11-20T13:36:51.515Z,100323.95
2017-11-20T13:37:56.555Z,100330.33
2017-11-20T13:39:01.623Z,100327.25
2017-11-20T13:40:07.435Z,100325.02
2017-11-20T13:41:12.737Z,100329.42
2017-11-20T13:42:17.825Z,100324.95
2017-11-20T13:43:22.962Z,100328.25
2017-11-20T13:44:28.032Z,100324.95
2017-11-20T13:45:33.090Z,100327.98
2017-11-20T13:46:38.910Z,100332.41
2017-11-20T13:47:43.741Z,100331.44
2017-11-20T13:48:49.562Z,100329.16
2017-11-20T13:49:54.668Z,100327.58
2017-11-20T13:50:59.476Z,100330.63
2017-11-20T13:52:04.571Z,100328.86
2017-11-20T13:53:10.445Z,100335.82
2017-11-20T13:54:15.474Z,100328.53
2017-11-20T13:55:20.553Z,100328.86
2017-11-20T13:56:26.368Z,100331.72
2017-11-20T13:57:31.404Z,100332.54
2017-11-20T13:58:37.130Z,100326.06
2017-11-20T13:59:42.167Z,100332.00
2017-11-20T14:00:47.233Z,100328.75
2017-11-20T14:01:52.396Z,100327.12
2017-11-20T14:02:57.507Z,100323.00
2017-11-20T14:04:02.303Z,100328.47
2017-11-20T14:05:08.212Z,100321.75
2017-11-20T14:06:30.653Z,100329.25
2017-11-20T14:07:36.120Z,100315.84
2017-11-20T14:08:41.166Z,100320.58
2017-11-20T14:09:46.571Z,100315.77
2017-11-20T14:10:51.611Z,100322.06
2017-11-20T14:11:56.718Z,100318.56
2017-11-20T14:13:02.707Z,100314.87
2017-11-20T14:14:07.752Z,100313.22
2017-11-20T14:15:13.002Z,100317.81
2017-11-20T14:16:18.822Z,100315.02
2017-11-20T14:17:23.731Z,100311.72
2017-11-20T14:18:29.000Z,100309.86
2017-11-20T14:19:34.375Z,100315.39
2017-11-20T14:20:39.789Z,100315.92
2017-11-20T14:21:44.853Z,100313.92
2017-11-20T14:22:50.251Z,100309.59
2017-11-20T14:23:55.303Z,100316.08
2017-11-20T14:25:00.683Z,100318.14
2017-11-20T14:26:06.499Z,100311.95
2017-11-20T14:27:11.885Z,100320.05
2017-11-20T14:28:17.106Z,100314.75
2017-11-20T14:29:23.014Z,100310.14
2017-11-20T14:30:28.401Z,100303.65
2017-11-20T14:31:33.462Z,100306.08
2017-11-20T14:32:39.067Z,100306.17
2017-11-20T14:33:45.539Z,100310.39
2017-11-20T14:34:50.582Z,100301.81
2017-11-20T14:35:55.663Z,100309.53
2017-11-20T14:37:00.793Z,100303.80
2017-11-20T14:38:05.861Z,100302.49
2017-11-20T14:39:10.933Z,100299.53
2017-11-20T14:40:16.079Z,100296.40
2017-11-20T14:41:21.144Z,100301.28
2017-11-20T14:42:26.250Z,100301.32
2017-11-20T14:43:31.062Z,100294.44
2017-11-20T14:44:36.177Z,100305.20
2017-11-20T14:45:41.306Z,100295.86
2017-11-20T14:46:46.145Z,100291.59
2017-11-20T14:48:05.364Z,100291.17
2017-11-20T14:49:10.187Z,100295.58
2017-11-20T14:50:15.298Z,100291.14
2017-11-20T14:51:34.220Z,100298.77
2017-11-20T14:52:39.609Z,100289.31
2017-11-20T14:53:45.772Z,100290.73
2017-11-20T14:54:50.660Z,100293.97
2017-11-20T14:55:56.520Z,100290.72
2017-11-20T14:57:01.333Z,100291.09
2017-11-20T14:58:06.390Z,100293.25
2017-11-20T14:59:11.486Z,100283.85
2017-11-20T15:00:16.534Z,100289.72
2017-11-20T15:01:26.031Z,100286.96
2017-11-20T15:02:31.079Z,100282.82
2017-11-20T15:03:36.331Z,100277.55
2017-11-20T15:04:41.623Z,100280.98
2017-11-20T15:05:46.511Z,100286.12
2017-11-20T15:06:51.574Z,100286.69
2017-11-20T15:07:56.656Z,100283.82
2017-11-20T15:09:01.781Z,100284.34
2017-11-20T15:10:06.828Z,100276.69
2017-11-20T15:11:12.682Z,100277.43
2017-11-20T15:12:17.710Z,100276.34
2017-11-20T15:13:24.459Z,100282.09
2017-11-20T15:14:30.186Z,100279.54
2017-11-20T15:15:36.026Z,100273.47
2017-11-20T15:16:41.101Z,100277.28
2017-11-20T15:17:45.962Z,100282.92
2017-11-20T15:18:51.009Z,100284.58
2017-11-20T15:19:56.674Z,100285.84
2017-11-20T15:21:02.005Z,100288.31
2017-11-20T15:22:06.971Z,100285.16
2017-11-20T15:23:12.893Z,100270.37
2017-11-20T15:24:18.412Z,100278.94
2017-11-20T15:25:23.468Z,100278.34
2017-11-20T15:26:29.007Z,100277.84
2017-11-20T15:27:34.487Z,100278.87
2017-11-20T15:28:39.728Z,100273.22
2017-11-20T15:29:45.213Z,100269.30
2017-11-20T15:30:51.156Z,100268.94
2017-11-20T15:31:56.247Z,100266.94
2017-11-20T15:33:01.326Z,100276.38
2017-11-20T15:34:06.997Z,100276.21
2017-11-20T15:35:12.555Z,100277.87
2017-11-20T15:36:18.921Z,100267.11
2017-11-20T15:37:24.631Z,100268.70
2017-11-20T15:38:29.772Z,100261.86
2017-11-20T15:39:35.272Z,100269.20
2017-11-20T15:40:41.648Z,100268.64
2017-11-20T15:41:47.530Z,100262.69
2017-11-20T15:42:53.538Z,100259.70
2017-11-20T15:43:59.487Z,100261.23
2017-11-20T15:45:05.097Z,100259.53
2017-11-20T15:46:11.272Z,100256.58
2017-11-20T15:47:17.532Z,100266.16
2017-11-20T15:48:23.412Z,100264.31
2017-11-20T15:49:29.522Z,100265.06
2017-11-20T15:50:35.533Z,100268.20
2017-11-20T15:51:42.300Z,100269.44
2017-11-20T15:52:49.272Z,100267.41
2017-11-20T15:53:55.124Z,100264.72
2017-11-20T15:55:01.814Z,100257.69
2017-11-20T15:56:07.835Z,100252.83
2017-11-20T15:57:14.338Z,100252.02
2017-11-20T15:58:20.703Z,100252.45
2017-11-20T15:59:26.721Z,100254.84
2017-11-20T16:00:32.460Z,100252.51
2017-11-20T16:01:38.511Z,100246.72
2017-11-20T16:02:44.355Z,100244.17
2017-11-20T16:03:50.403Z,100244.09
2017-11-20T16:04:56.428Z,100236.26
2017-11-20T16:06:02.089Z,100240.39
2017-11-20T16:07:08.243Z,100237.88
2017-11-20T16:08:17.155Z,100239.18
2017-11-20T16:09:24.332Z,100243.53
2017-11-20T16:10:30.276Z,100238.93
2017-11-20T16:11:36.437Z,100235.70
2017-11-20T16:12:42.273Z,100242.50
2017-11-20T16:13:48.370Z,100240.05
2017-11-20T16:14:54.572Z,100242.23
2017-11-20T16:16:01.288Z,100238.28
2017-11-20T16:17:09.094Z,100244.41
2017-11-20T16:18:15.715Z,100246.12
2017-11-20T16:19:22.650Z,100246.62
2017-11-20T16:20:29.449Z,100242.41
2017-11-20T16:21:35.578Z,100242.38
2017-11-20T16:22:41.823Z,100245.80
2017-11-20T16:23:48.094Z,100249.06
2017-11-20T16:24:54.280Z,100245.15
2017-11-20T16:26:01.097Z,100247.89
2017-11-20T16:27:09.048Z,100237.37
2017-11-20T16:28:15.855Z,100243.77
2017-11-20T16:29:24.256Z,100241.92
2017-11-20T16:30:31.030Z,100234.83
2017-11-20T16:31:37.173Z,100237.64
2017-11-20T16:32:44.726Z,100239.80
2017-11-20T16:33:53.499Z,100235.00
2017-11-20T16:35:00.338Z,100228.86
2017-11-20T16:36:06.384Z,100233.98
2017-11-20T16:37:12.585Z,100229.64
2017-11-20T16:38:19.455Z,100229.12
2017-11-20T16:39:26.301Z,100227.65
2017-11-20T16:40:32.023Z,100228.17
2017-11-20T16:41:39.083Z,100227.16
2017-11-20T16:42:45.232Z,100226.80
2017-11-20T16:43:51.386Z,100231.66
2017-11-20T16:44:57.537Z,100233.56
2017-11-20T16:46:03.278Z,100231.89
2017-11-20T16:47:09.122Z,100234.64
2017-11-20T16:48:15.169Z,100232.67
2017-11-20T16:49:21.352Z,100232.42
2017-11-20T16:50:28.219Z,100227.95
2017-11-20T16:51:34.439Z,100222.03
2017-11-20T16:52:40.595Z,100218.91
2017-11-20T16:53:46.772Z,100226.80
2017-11-20T16:54:52.895Z,100228.36
2017-11-20T16:55:58.941Z,100230.13
2017-11-20T16:57:21.781Z,100226.38
2017-11-20T16:58:44.653Z,100221.53
2017-11-20T16:59:51.001Z,100216.67
2017-11-20T17:00:57.625Z,100218.47
2017-11-20T17:03:48.600Z,100209.84
2017-11-20T17:04:56.391Z,100207.41
2017-11-20T17:06:03.647Z,100212.95
2017-11-20T17:07:11.404Z,100210.91
2017-11-20T17:08:19.297Z,100210.91
2017-11-20T17:09:26.277Z,100213.67
2017-11-20T17:10:33.711Z,100212.99
2017-11-20T17:11:40.794Z,100212.11
2017-11-20T17:12:46.769Z,100206.63
2017-11-20T17:13:53.024Z,100210.22
2017-11-20T17:14:59.074Z,100213.91
2017-11-20T17:16:05.555Z,100205.72
2017-11-20T17:17:11.788Z,100212.21
2017-11-20T17:18:17.968Z,100210.61
2017-11-20T17:19:25.010Z,100208.16
2017-11-20T17:20:31.879Z,100201.98
2017-11-20T17:21:38.185Z,100201.66
2017-11-20T17:22:47.964Z,100201.60
2017-11-20T17:23:55.363Z,100195.01
2017-11-20T17:25:01.499Z,100201.92
2017-11-20T17:26:08.469Z,100207.28
2017-11-20T17:27:17.102Z,100209.63
2017-11-20T17:28:24.503Z,100201.86
2017-11-20T17:29:32.854Z,100200.33
2017-11-20T17:30:39.599Z,100198.33
2017-11-20T17:31:45.882Z,100194.60
2017-11-20T17:32:52.403Z,100199.34
2017-11-20T17:34:02.070Z,100191.12
2017-11-20T17:35:11.305Z,100194.94
2017-11-20T17:36:17.227Z,100188.11
2017-11-20T17:37:23.579Z,100193.85
2017-11-20T17:38:29.619Z,100187.56
2017-11-20T17:39:35.739Z,100192.33
2017-11-20T17:40:42.811Z,100185.47
2017-11-20T17:41:49.824Z,100180.25
2017-11-20T17:42:56.487Z,100182.31
2017-11-20T17:44:03.067Z,100181.23
2017-11-20T17:45:09.249Z,100185.97
2017-11-20T17:46:16.113Z,100183.00
2017-11-20T17:47:22.262Z,100184.83
2017-11-20T17:48:30.883Z,100181.04
2017-11-20T17:49:37.817Z,100188.19
2017-11-20T17:50:43.888Z,100183.91
2017-11-20T17:51:50.916Z,100185.47
2017-11-20T17:52:57.181Z,100187.01
2017-11-20T17:54:02.922Z,100187.72
2017-11-20T17:55:09.391Z,100183.45
2017-11-20T17:56:15.518Z,100189.16
2017-11-20T17:57:23.002Z,100184.80
2017-11-20T17:58:29.049Z,100185.69
2017-11-20T17:59:36.428Z,100177.00
2017-11-20T18:00:43.500Z,100180.80
2017-11-20T18:01:49.445Z,100187.56
2017-11-20T18:02:56.415Z,100182.59
2017-11-20T18:04:02.340Z,100182.98
2017-11-20T18:05:08.524Z,100186.91
2017-11-20T18:06:16.194Z,100184.28
2017-11-20T18:07:22.451Z,100180.21
2017-11-20T18:08:31.334Z,100185.11
2017-11-20T18:09:39.462Z,100186.58
2017-11-20T18:10:45.576Z,100188.34
2017-11-20T18:11:52.383Z,100181.30
2017-11-20T18:12:58.325Z,100183.14
2017-11-20T18:14:05.211Z,100183.69
2017-11-20T18:15:11.386Z,100183.50
2017-11-20T18:16:19.850Z,100178.48
2017-11-20T18:17:27.903Z,100173.30
2017-11-20T18:18:35.222Z,100171.67
2017-11-20T18:19:42.102Z,100171.83
2017-11-20T18:20:48.394Z,100172.94
2017-11-20T18:21:54.905Z,100173.20
2017-11-20T18:23:01.944Z,100167.07
2017-11-20T18:24:08.852Z,100164.27
2017-11-20T18:25:16.323Z,100169.97
2017-11-20T18:26:25.760Z,100169.55
2017-11-20T18:27:32.337Z,100163.00
2017-11-20T18:28:38.486Z,100165.44
2017-11-20T18:29:45.639Z,100160.16
2017-11-20T18:30:51.892Z,100163.84
2017-11-20T18:31:58.099Z,100163.52
2017-11-20T18:33:06.460Z,100158.27
2017-11-20T18:34:12.504Z,100157.94
2017-11-20T18:35:19.398Z,100159.83
2017-11-20T18:36:27.577Z,100158.27
2017-11-20T18:37:33.781Z,100164.33
2017-11-20T18:38:41.192Z,100160.61
2017-11-20T18:39:47.548Z,100153.19
2017-11-20T18:40:54.228Z,100152.66
2017-11-20T18:42:01.189Z,100153.69
2017-11-20T18:43:07.445Z,100157.02
2017-11-20T18:44:15.335Z,100149.38
2017-11-20T18:45:21.475Z,100153.86
2017-11-20T18:46:28.445Z,100150.86
2017-11-20T18:47:34.344Z,100155.95
2017-11-20T18:48:41.166Z,100155.62
2017-11-20T18:49:47.012Z,100158.06
2017-11-20T18:50:53.595Z,100155.72
2017-11-20T18:52:01.767Z,100154.05
2017-11-20T18:53:07.873Z,100156.14
2017-11-20T18:54:16.315Z,100152.48
2017-11-20T18:55:22.260Z,100151.66
2017-11-20T18:56:29.239Z,100150.84
2017-11-20T18:57:35.481Z,100156.80
2017-11-20T18:58:41.637Z,100145.19
2017-11-20T18:59:47.423Z,100145.81
2017-11-20T19:01:10.317Z,100145.95
2017-11-20T19:02:34.298Z,100140.31
2017-11-20T19:05:46.184Z,100141.75
2017-11-20T19:07:09.333Z,100138.84
2017-11-20T19:08:32.278Z,100140.55
2017-11-20T19:09:38.559Z,100134.70
2017-11-20T19:10:44.580Z,100136.49
2017-11-20T19:11:50.600Z,100145.95
2017-11-20T19:12:57.596Z,100138.14
2017-11-20T19:14:04.415Z,100136.64
2017-11-20T19:15:12.264Z,100134.36
2017-11-20T19:16:18.403Z,100135.97
2017-11-20T19:17:25.988Z,100137.83
2017-11-20T19:18:32.267Z,100133.45
2017-11-20T19:19:39.638Z,100130.47
2017-11-20T19:20:45.788Z,100130.69
2017-11-20T19:21:52.030Z,100132.19
2017-11-20T19:23:01.552Z,100131.50
2017-11-20T19:24:08.386Z,100135.52
2017-11-20T19:25:16.027Z,100131.11
2017-11-20T19:26:23.080Z,100129.45
2017-11-20T19:27:30.742Z,100128.34
2017-11-20T19:28:37.666Z,100135.91
2017-11-20T19:29:43.680Z,100131.63
2017-11-20T19:30:49.781Z,100130.19
2017-11-20T19:31:56.514Z,100133.65
2017-11-20T19:33:03.471Z,100128.98
2017-11-20T19:34:10.025Z,100125.34
2017-11-20T19:35:17.074Z,100124.83
2017-11-20T19:36:24.745Z,100127.38
2017-11-20T19:37:33.041Z,100126.42
2017-11-20T19:38:40.380Z,100126.36
2017-11-20T19:39:48.121Z,100123.50
2017-11-20T19:40:54.768Z,100120.69
2017-11-20T19:42:02.626Z,100119.18
2017-11-20T19:43:11.454Z,100119.11
2017-11-20T19:44:18.833Z,100116.61
2017-11-20T19:45:24.967Z,100118.66
2017-11-20T19:46:30.994Z,100112.07
2017-11-20T19:47:37.451Z,100106.73
2017-11-20T19:48:43.420Z,100105.82
2017-11-20T19:49:49.546Z,100107.95
2017-11-20T19:50:57.451Z,100109.98
2017-11-20T19:52:04.976Z,100107.31
2017-11-20T19:53:11.588Z,100102.93
2017-11-20T19:54:17.730Z,100102.82
2017-11-20T19:55:25.625Z,100108.09
2017-11-20T19:56:33.367Z,100105.43
2017-11-20T19:57:40.606Z,100101.75
2017-11-20T19:58:47.665Z,100099.59
2017-11-20T19:59:55.005Z,100101.80
2017-11-20T20:01:01.827Z,100103.61
2017-11-20T20:02:08.946Z,100100.58
2017-11-20T20:03:16.363Z,100094.63
2017-11-20T20:04:24.672Z,100094.02
2017-11-20T20:05:31.663Z,100094.05
2017-11-20T20:06:40.775Z,100093.05
2017-11-20T20:07:48.937Z,100094.33
2017-11-20T20:08:55.828Z,100091.77
2017-11-20T20:10:03.299Z,100090.14
2017-11-20T20:11:11.515Z,100085.44
2017-11-20T20:12:17.579Z,100086.58
2017-11-20T20:13:40.969Z,100081.93
2017-11-20T20:15:03.953Z,100082.93
2017-11-20T20:17:55.516Z,100077.42
2017-11-20T20:19:02.764Z,100077.45
2017-11-20T20:20:09.837Z,100078.53
2017-11-20T20:21:16.057Z,100079.12
2017-11-20T20:22:23.160Z,100081.47
2017-11-20T20:23:29.616Z,100073.42
2017-11-20T20:24:38.267Z,100072.73
2017-11-20T20:25:44.473Z,100071.79
2017-11-20T20:26:51.343Z,100069.92
2017-11-20T20:27:58.214Z,100067.31
2017-11-20T20:29:06.282Z,100059.95
2017-11-20T20:30:14.184Z,100059.95
2017-11-20T20:31:21.321Z,100068.68
2017-11-20T20:32:30.071Z,100068.19
2017-11-20T20:33:39.239Z,100071.06
2017-11-20T20:34:46.903Z,100067.02
2017-11-20T20:35:54.154Z,100063.07
2017-11-20T20:37:00.277Z,100062.06
2017-11-20T20:38:06.562Z,100064.97
2017-11-20T20:39:12.813Z,100056.26
2017-11-20T20:40:19.696Z,100055.38
2017-11-20T20:41:26.248Z,100058.93
2017-11-20T20:42:33.106Z,100054.80
2017-11-20T20:43:39.359Z,100055.19
2017-11-20T20:44:48.685Z,100059.36
2017-11-20T20:45:56.277Z,100064.09
2017-11-20T20:47:07.855Z,100059.46
2017-11-20T20:48:15.123Z,100049.74
2017-11-20T20:49:21.653Z,100058.45
2017-11-20T20:50:30.602Z,100053.33
2017-11-20T20:51:38.448Z,100050.59
2017-11-20T20:52:46.709Z,100045.11
2017-11-20T20:53:53.672Z,100048.69
2017-11-20T20:55:03.813Z,100044.06
2017-11-20T20:56:10.996Z,100048.06
2017-11-20T20:57:18.183Z,100043.25
2017-11-20T20:58:26.050Z,100043.09
2017-11-20T20:59:32.340Z,100036.47
2017-11-20T21:00:39.336Z,100039.27
2017-11-20T21:01:47.159Z,100030.80
2017-11-20T21:02:54.034Z,100029.20
2017-11-20T21:04:00.179Z,100034.42
2017-11-20T21:05:10.667Z,100029.43
2017-11-20T21:06:18.322Z,100025.12
2017-11-20T21:07:24.952Z,100024.28
2017-11-20T21:08:31.508Z,100027.15
2017-11-20T21:09:43.751Z,100025.29
2017-11-20T21:10:55.692Z,100027.41
2017-11-20T21:12:07.574Z,100021.93
2017-11-20T21:13:15.970Z,100025.78
2017-11-20T21:14:25.261Z,100027.64
2017-11-20T21:15:31.617Z,100027.98
2017-11-20T21:16:38.249Z,100023.89
2017-11-20T21:17:45.348Z,100019.72
2017-11-20T21:18:52.416Z,100022.16
2017-11-20T21:19:58.561Z,100010.69
2017-11-20T21:21:07.765Z,100011.44
2017-11-20T21:22:15.608Z,100008.89
2017-11-20T21:23:23.934Z,100001.86
2017-11-20T21:24:30.108Z,100006.19
2017-11-20T21:25:36.770Z,100004.36
2017-11-20T21:26:44.731Z,100001.79
2017-11-20T21:27:51.435Z,99997.29
2017-11-20T21:28:58.610Z,99997.16
2017-11-20T21:30:06.596Z,99998.69
2017-11-20T21:31:12.700Z,99994.93
2017-11-20T21:32:19.572Z,99993.56
2017-11-20T21:33:26.483Z,99984.91
2017-11-20T21:34:32.631Z,99993.89
2017-11-20T21:35:41.734Z,99988.55
2017-11-20T21:36:48.113Z,99992.69
2017-11-20T21:37:55.124Z,99998.72
2017-11-20T21:39:02.827Z,99994.11
2017-11-20T21:40:09.750Z,99988.78
2017-11-20T21:41:15.968Z,99989.91
2017-11-20T21:42:23.731Z,99990.67
2017-11-20T21:43:30.444Z,99990.97
2017-11-20T21:44:37.751Z,99988.89
2017-11-20T21:45:43.970Z,99992.46
2017-11-20T21:46:50.117Z,99982.61
2017-11-20T21:47:56.236Z,99981.67
2017-11-20T21:49:03.061Z,99974.89
2017-11-20T21:50:09.091Z,99984.48
2017-11-20T21:51:16.136Z,99978.44
2017-11-20T21:52:23.136Z,99978.41
2017-11-20T21:53:29.342Z,99971.25
2017-11-20T21:54:37.339Z,99970.72
2017-11-20T21:55:44.144Z,99964.59
2017-11-20T21:56:50.497Z,99967.74
2017-11-20T21:57:57.603Z,99959.46
2017-11-20T21:59:03.841Z,99961.20
2017-11-20T22:00:10.220Z,99957.87
2017-11-20T22:01:17.490Z,99954.58
2017-11-20T22:02:24.934Z,99954.07
2017-11-20T22:03:31.956Z,99956.52
2017-11-20T22:04:38.128Z,99956.48
2017-11-20T22:05:46.462Z,99960.07
2017-11-20T22:06:54.041Z,99952.75
2017-11-20T22:08:00.098Z,99947.24
2017-11-20T22:09:06.073Z,99938.48
2017-11-20T22:10:12.087Z,99941.67
2017-11-20T22:11:18.304Z,99936.91
2017-11-20T22:12:41.824Z,99928.19
2017-11-20T22:13:49.871Z,99928.69
2017-11-20T22:14:56.245Z,99926.48
2017-11-20T22:16:02.696Z,99921.17
2017-11-20T22:17:08.708Z,99918.81
2017-11-20T22:18:15.623Z,99919.66
2017-11-20T22:19:21.624Z,99923.33
2017-11-20T22:20:28.974Z,99923.75
2017-11-20T22:21:35.104Z,99918.70
2017-11-20T22:22:42.766Z,99921.34
2017-11-20T22:23:52.057Z,99921.88
2017-11-20T22:24:58.983Z,99916.13
2017-11-20T22:26:05.133Z,99912.42
2017-11-20T22:27:11.678Z,99909.41
2017-11-20T22:28:17.795Z,99908.57
2017-11-20T22:29:23.839Z,99910.97
2017-11-20T22:30:29.186Z,99916.38
2017-11-20T22:31:36.824Z,99907.98
2017-11-20T22:32:42.892Z,99903.81
2017-11-20T22:33:50.176Z,99908.72
2017-11-20T22:34:56.187Z,99910.78
2017-11-20T22:36:02.296Z,99912.19
2017-11-20T22:37:08.485Z,99914.76
2017-11-20T22:38:15.149Z,99910.16
2017-11-20T22:39:21.910Z,99913.77
2017-11-20T22:40:28.072Z,99912.00
2017-11-20T22:41:35.147Z,99910.45
2017-11-20T22:42:42.639Z,99906.84
2017-11-20T22:43:48.314Z,99907.70
2017-11-20T22:44:54.184Z,99899.63
2017-11-20T22:46:00.969Z,99902.34
2017-11-20T22:47:06.924Z,99895.13
2017-11-20T22:48:12.806Z,99893.86
2017-11-20T22:49:19.104Z,99895.31
2017-11-20T22:50:25.935Z,99899.99
2017-11-20T22:51:31.956Z,99897.45
2017-11-20T22:52:37.999Z,99905.27
2017-11-20T22:53:44.939Z,99905.25
2017-11-20T22:54:50.866Z,99901.83
2017-11-20T22:55:57.509Z,99898.87
2017-11-20T22:57:03.366Z,99894.34
2017-11-20T22:58:09.253Z,99901.08
2017-11-20T22:59:15.302Z,99899.88
2017-11-20T23:00:21.358Z,99892.41
2017-11-20T23:01:27.152Z,99881.99
2017-11-20T23:02:34.038Z,99888.30
2017-11-20T23:03:40.566Z,99887.56
2017-11-20T23:04:46.118Z,99883.23
2017-11-20T23:05:51.897Z,99890.33
2017-11-20T23:06:57.694Z,99894.62
2017-11-20T23:08:03.657Z,99890.23
2017-11-20T23:09:10.649Z,99898.89
2017-11-20T23:10:16.804Z,99893.30
2017-11-20T23:11:22.209Z,99899.54
2017-11-20T23:12:27.605Z,99893.19
2017-11-20T23:13:32.646Z,99898.09
2017-11-20T23:14:37.686Z,99895.31
2017-11-20T23:15:42.720Z,99897.70
2017-11-20T23:16:49.192Z,99893.69
2017-11-20T23:17:55.837Z,99894.40
2017-11-20T23:19:02.338Z,99893.13
2017-11-20T23:20:08.059Z,99894.42
2017-11-20T23:21:14.190Z,99891.33
2017-11-20T23:22:19.891Z,99891.56
2017-11-20T23:23:25.608Z,99884.09
2017-11-20T23:24:31.306Z,99882.95
2017-11-20T23:25:37.014Z,99884.64
2017-11-20T23:26:42.719Z,99879.57
2017-11-20T23:27:48.091Z,99883.06
2017-11-20T23:28:53.811Z,99885.00
2017-11-20T23:29:59.509Z,99886.23
2017-11-20T23:31:05.221Z,99889.24
2017-11-20T23:32:10.987Z,99892.06
2017-11-20T23:33:17.463Z,99893.90
2017-11-20T23:34:23.950Z,99890.55
2017-11-20T23:35:29.645Z,99894.00
2017-11-20T23:36:36.150Z,99885.89
2017-11-20T23:37:41.853Z,99882.50
2017-11-20T23:38:48.319Z,99884.06
2017-11-20T23:39:54.805Z,99887.66
2017-11-20T23:41:00.500Z,99881.34
2017-11-20T23:42:07.702Z,99881.41
2017-11-20T23:43:13.403Z,99882.15
2017-11-20T23:44:19.102Z,99878.90
2017-11-20T23:45:24.826Z,99870.64
2017-11-20T23:46:30.517Z,99871.66
2017-11-20T23:47:36.209Z,99870.95
2017-11-20T23:48:41.909Z,99872.75
2017-11-20T23:49:47.397Z,99869.58
2017-11-20T23:50:53.121Z,99860.78
2017-11-20T23:51:58.810Z,99860.19
2017-11-20T23:53:04.506Z,99855.78
2017-11-20T23:54:09.315Z,99855.31
2017-11-20T23:55:15.035Z,99860.97
2017-11-20T23:56:20.746Z,99857.59
2017-11-20T23:57:26.436Z,99855.05
2017-11-20T23:58:32.131Z,99857.20
2017-11-20T23:59:37.829Z,99850.86
